sensor_id;sensor_type;location;lat;lon;timestamp;P1;durP1;ratioP1;P2;durP2;ratioP2
38717;SDS011;24468;52.128;9.278;2023-03-14T00:02:18;3.78;;;2.08;;
38717;SDS011;24468;52.128;9.278;2023-03-14T00:04:44;4.38;;;1.10;;
38717;SDS011;24468;52.128;9.278;2023-03-14T00:07:10;3.53;;;1.27;;
38717;SDS011;24468;52.128;9.278;2023-03-14T00:09:36;5.80;;;1.30;;
38717;SDS011;24468;52.128;9.278;2023-03-14T00:12:02;3.45;;;1.30;;
38717;SDS011;24468;52.128;9.278;2023-03-14T00:14:28;5.43;;;1.52;;
38717;SDS011;24468;52.128;9.278;2023-03-14T00:16:55;2.67;;;0.90;;
38717;SDS011;24468;52.128;9.278;2023-03-14T00:19:21;3.13;;;1.17;;
38717;SDS011;24468;52.128;9.278;2023-03-14T00:21:46;3.83;;;1.30;;
38717;SDS011;24468;52.128;9.278;2023-03-14T00:24:12;6.50;;;1.40;;
38717;SDS011;24468;52.128;9.278;2023-03-14T00:26:37;5.05;;;1.42;;
38717;SDS011;24468;52.128;9.278;2023-03-14T00:29:03;2.67;;;0.82;;
38717;SDS011;24468;52.128;9.278;2023-03-14T00:31:29;1.90;;;0.70;;
38717;SDS011;24468;52.128;9.278;2023-03-14T00:33:54;4.10;;;1.30;;
38717;SDS011;24468;52.128;9.278;2023-03-14T00:36:20;5.57;;;1.25;;
38717;SDS011;24468;52.128;9.278;2023-03-14T00:38:47;2.05;;;1.20;;
38717;SDS011;24468;52.128;9.278;2023-03-14T00:41:17;2.35;;;1.13;;
38717;SDS011;24468;52.128;9.278;2023-03-14T00:43:47;3.60;;;0.90;;
38717;SDS011;24468;52.128;9.278;2023-03-14T00:46:13;6.20;;;1.95;;
38717;SDS011;24468;52.128;9.278;2023-03-14T00:48:39;3.35;;;1.00;;
38717;SDS011;24468;52.128;9.278;2023-03-14T00:51:05;2.28;;;0.98;;
38717;SDS011;24468;52.128;9.278;2023-03-14T00:53:36;5.15;;;1.80;;
38717;SDS011;24468;52.128;9.278;2023-03-14T00:56:04;10.38;;;1.33;;
38717;SDS011;24468;52.128;9.278;2023-03-14T00:58:32;4.88;;;1.30;;
38717;SDS011;24468;52.128;9.278;2023-03-14T01:00:58;2.40;;;0.90;;
38717;SDS011;24468;52.128;9.278;2023-03-14T01:03:23;5.78;;;1.38;;
38717;SDS011;24468;52.128;9.278;2023-03-14T01:05:49;4.25;;;0.93;;
38717;SDS011;24468;52.128;9.278;2023-03-14T01:08:15;2.15;;;0.77;;
38717;SDS011;24468;52.128;9.278;2023-03-14T01:10:42;4.03;;;1.33;;
38717;SDS011;24468;52.128;9.278;2023-03-14T01:13:08;3.75;;;1.00;;
38717;SDS011;24468;52.128;9.278;2023-03-14T01:15:34;5.50;;;0.93;;
38717;SDS011;24468;52.128;9.278;2023-03-14T01:18:02;3.67;;;1.00;;
38717;SDS011;24468;52.128;9.278;2023-03-14T01:20:28;4.38;;;1.58;;
38717;SDS011;24468;52.128;9.278;2023-03-14T01:22:54;3.55;;;1.15;;
38717;SDS011;24468;52.128;9.278;2023-03-14T01:25:20;3.80;;;1.60;;
38717;SDS011;24468;52.128;9.278;2023-03-14T01:27:45;7.47;;;1.20;;
38717;SDS011;24468;52.128;9.278;2023-03-14T01:30:11;2.90;;;1.65;;
38717;SDS011;24468;52.128;9.278;2023-03-14T01:32:38;2.30;;;1.20;;
38717;SDS011;24468;52.128;9.278;2023-03-14T01:35:04;3.80;;;1.10;;
38717;SDS011;24468;52.128;9.278;2023-03-14T01:37:30;4.90;;;0.90;;
38717;SDS011;24468;52.128;9.278;2023-03-14T01:39:55;3.85;;;1.40;;
38717;SDS011;24468;52.128;9.278;2023-03-14T01:42:21;6.75;;;1.20;;
38717;SDS011;24468;52.128;9.278;2023-03-14T01:47:24;4.97;;;1.27;;
38717;SDS011;24468;52.128;9.278;2023-03-14T01:49:51;4.70;;;1.10;;
38717;SDS011;24468;52.128;9.278;2023-03-14T01:55:07;3.80;;;0.88;;
38717;SDS011;24468;52.128;9.278;2023-03-14T01:57:44;2.33;;;0.95;;
38717;SDS011;24468;52.128;9.278;2023-03-14T02:00:16;3.70;;;0.85;;
38717;SDS011;24468;52.128;9.278;2023-03-14T02:02:49;3.92;;;0.80;;
38717;SDS011;24468;52.128;9.278;2023-03-14T02:05:21;8.98;;;1.60;;
38717;SDS011;24468;52.128;9.278;2023-03-14T02:07:51;3.42;;;1.10;;
38717;SDS011;24468;52.128;9.278;2023-03-14T02:10:20;3.90;;;1.40;;
38717;SDS011;24468;52.128;9.278;2023-03-14T02:12:49;5.18;;;1.10;;
38717;SDS011;24468;52.128;9.278;2023-03-14T02:15:17;3.22;;;0.95;;
38717;SDS011;24468;52.128;9.278;2023-03-14T02:17:42;4.40;;;1.15;;
38717;SDS011;24468;52.128;9.278;2023-03-14T02:22:57;2.92;;;1.35;;
38717;SDS011;24468;52.128;9.278;2023-03-14T02:28:15;5.85;;;1.02;;
38717;SDS011;24468;52.128;9.278;2023-03-14T02:30:42;7.93;;;1.05;;
38717;SDS011;24468;52.128;9.278;2023-03-14T02:33:10;3.13;;;1.38;;
38717;SDS011;24468;52.128;9.278;2023-03-14T02:41:06;4.15;;;1.40;;
38717;SDS011;24468;52.128;9.278;2023-03-14T02:43:32;3.28;;;0.98;;
38717;SDS011;24468;52.128;9.278;2023-03-14T02:45:58;7.13;;;1.33;;
38717;SDS011;24468;52.128;9.278;2023-03-14T02:48:27;6.53;;;0.90;;
38717;SDS011;24468;52.128;9.278;2023-03-14T02:51:00;6.63;;;1.30;;
38717;SDS011;24468;52.128;9.278;2023-03-14T02:53:27;3.50;;;0.80;;
38717;SDS011;24468;52.128;9.278;2023-03-14T02:55:56;7.32;;;1.15;;
38717;SDS011;24468;52.128;9.278;2023-03-14T02:58:22;3.53;;;0.80;;
38717;SDS011;24468;52.128;9.278;2023-03-14T03:00:48;4.03;;;1.00;;
38717;SDS011;24468;52.128;9.278;2023-03-14T03:03:14;6.57;;;1.35;;
38717;SDS011;24468;52.128;9.278;2023-03-14T03:05:40;3.95;;;0.77;;
38717;SDS011;24468;52.128;9.278;2023-03-14T03:08:05;3.72;;;1.00;;
38717;SDS011;24468;52.128;9.278;2023-03-14T03:10:31;5.13;;;1.23;;
38717;SDS011;24468;52.128;9.278;2023-03-14T03:12:57;6.80;;;1.17;;
38717;SDS011;24468;52.128;9.278;2023-03-14T03:15:23;3.90;;;1.10;;
38717;SDS011;24468;52.128;9.278;2023-03-14T03:17:48;4.85;;;1.10;;
38717;SDS011;24468;52.128;9.278;2023-03-14T03:20:14;6.53;;;2.28;;
38717;SDS011;24468;52.128;9.278;2023-03-14T03:22:40;7.40;;;1.63;;
38717;SDS011;24468;52.128;9.278;2023-03-14T03:25:06;5.25;;;1.10;;
38717;SDS011;24468;52.128;9.278;2023-03-14T03:27:33;6.35;;;0.73;;
38717;SDS011;24468;52.128;9.278;2023-03-14T03:30:02;1.10;;;0.70;;
38717;SDS011;24468;52.128;9.278;2023-03-14T03:32:30;2.33;;;0.50;;
38717;SDS011;24468;52.128;9.278;2023-03-14T03:34:56;4.57;;;0.57;;
38717;SDS011;24468;52.128;9.278;2023-03-14T03:37:21;2.80;;;0.60;;
38717;SDS011;24468;52.128;9.278;2023-03-14T03:39:49;1.35;;;0.50;;
38717;SDS011;24468;52.128;9.278;2023-03-14T03:42:16;2.30;;;0.60;;
38717;SDS011;24468;52.128;9.278;2023-03-14T03:44:41;3.13;;;0.50;;
38717;SDS011;24468;52.128;9.278;2023-03-14T03:47:07;2.92;;;0.68;;
38717;SDS011;24468;52.128;9.278;2023-03-14T03:49:33;2.38;;;0.70;;
38717;SDS011;24468;52.128;9.278;2023-03-14T03:51:58;1.92;;;0.40;;
38717;SDS011;24468;52.128;9.278;2023-03-14T03:54:24;1.50;;;0.50;;
38717;SDS011;24468;52.128;9.278;2023-03-14T03:56:50;1.23;;;0.52;;
38717;SDS011;24468;52.128;9.278;2023-03-14T03:59:16;3.10;;;0.30;;
38717;SDS011;24468;52.128;9.278;2023-03-14T04:01:42;2.53;;;0.70;;
38717;SDS011;24468;52.128;9.278;2023-03-14T04:04:08;0.65;;;0.25;;
38717;SDS011;24468;52.128;9.278;2023-03-14T04:06:33;0.43;;;0.25;;
38717;SDS011;24468;52.128;9.278;2023-03-14T04:08:59;2.55;;;0.30;;
38717;SDS011;24468;52.128;9.278;2023-03-14T04:11:25;1.20;;;0.20;;
38717;SDS011;24468;52.128;9.278;2023-03-14T04:13:50;0.95;;;0.22;;
38717;SDS011;24468;52.128;9.278;2023-03-14T04:16:20;2.53;;;0.40;;
38717;SDS011;24468;52.128;9.278;2023-03-14T04:18:48;0.47;;;0.20;;
38717;SDS011;24468;52.128;9.278;2023-03-14T04:21:15;0.88;;;0.20;;
38717;SDS011;24468;52.128;9.278;2023-03-14T04:23:40;1.20;;;0.10;;
38717;SDS011;24468;52.128;9.278;2023-03-14T04:26:06;1.25;;;0.32;;
38717;SDS011;24468;52.128;9.278;2023-03-14T04:28:32;2.35;;;0.47;;
38717;SDS011;24468;52.128;9.278;2023-03-14T04:30:57;0.63;;;0.20;;
38717;SDS011;24468;52.128;9.278;2023-03-14T04:33:23;1.98;;;0.20;;
38717;SDS011;24468;52.128;9.278;2023-03-14T04:35:52;1.58;;;0.55;;
38717;SDS011;24468;52.128;9.278;2023-03-14T04:38:19;1.33;;;0.43;;
38717;SDS011;24468;52.128;9.278;2023-03-14T04:40:45;2.72;;;0.85;;
38717;SDS011;24468;52.128;9.278;2023-03-14T04:43:10;3.38;;;0.50;;
38717;SDS011;24468;52.128;9.278;2023-03-14T04:45:36;5.43;;;0.98;;
38717;SDS011;24468;52.128;9.278;2023-03-14T04:48:06;2.95;;;0.95;;
38717;SDS011;24468;52.128;9.278;2023-03-14T04:50:31;4.85;;;1.35;;
38717;SDS011;24468;52.128;9.278;2023-03-14T04:52:57;3.95;;;0.80;;
38717;SDS011;24468;52.128;9.278;2023-03-14T04:55:22;2.75;;;1.35;;
38717;SDS011;24468;52.128;9.278;2023-03-14T04:57:48;6.20;;;2.13;;
38717;SDS011;24468;52.128;9.278;2023-03-14T05:00:14;2.35;;;1.08;;
38717;SDS011;24468;52.128;9.278;2023-03-14T05:02:43;6.75;;;1.08;;
38717;SDS011;24468;52.128;9.278;2023-03-14T05:05:08;6.15;;;1.10;;
38717;SDS011;24468;52.128;9.278;2023-03-14T05:07:34;5.55;;;0.80;;
38717;SDS011;24468;52.128;9.278;2023-03-14T05:10:00;4.40;;;1.23;;
38717;SDS011;24468;52.128;9.278;2023-03-14T05:12:25;3.97;;;0.88;;
38717;SDS011;24468;52.128;9.278;2023-03-14T05:14:51;2.50;;;0.93;;
38717;SDS011;24468;52.128;9.278;2023-03-14T05:17:16;2.25;;;0.98;;
38717;SDS011;24468;52.128;9.278;2023-03-14T05:19:43;6.38;;;1.73;;
38717;SDS011;24468;52.128;9.278;2023-03-14T05:22:09;3.55;;;0.88;;
38717;SDS011;24468;52.128;9.278;2023-03-14T05:24:35;5.53;;;0.90;;
38717;SDS011;24468;52.128;9.278;2023-03-14T05:27:01;3.10;;;0.90;;
38717;SDS011;24468;52.128;9.278;2023-03-14T05:29:28;3.90;;;0.75;;
38717;SDS011;24468;52.128;9.278;2023-03-14T05:31:54;2.50;;;0.60;;
38717;SDS011;24468;52.128;9.278;2023-03-14T05:34:19;3.78;;;1.00;;
38717;SDS011;24468;52.128;9.278;2023-03-14T05:36:45;2.80;;;0.75;;
38717;SDS011;24468;52.128;9.278;2023-03-14T05:39:10;3.65;;;0.95;;
38717;SDS011;24468;52.128;9.278;2023-03-14T05:41:36;3.30;;;0.90;;
38717;SDS011;24468;52.128;9.278;2023-03-14T05:44:01;3.50;;;0.70;;
38717;SDS011;24468;52.128;9.278;2023-03-14T05:46:27;2.80;;;0.63;;
38717;SDS011;24468;52.128;9.278;2023-03-14T05:48:54;1.95;;;0.45;;
38717;SDS011;24468;52.128;9.278;2023-03-14T05:51:19;4.03;;;1.17;;
38717;SDS011;24468;52.128;9.278;2023-03-14T05:53:45;4.57;;;0.75;;
38717;SDS011;24468;52.128;9.278;2023-03-14T05:56:10;4.13;;;0.73;;
38717;SDS011;24468;52.128;9.278;2023-03-14T05:58:36;0.70;;;0.40;;
38717;SDS011;24468;52.128;9.278;2023-03-14T06:01:02;2.22;;;0.57;;
38717;SDS011;24468;52.128;9.278;2023-03-14T06:03:30;6.97;;;1.50;;
38717;SDS011;24468;52.128;9.278;2023-03-14T06:05:56;2.53;;;0.85;;
38717;SDS011;24468;52.128;9.278;2023-03-14T06:08:22;2.55;;;0.63;;
38717;SDS011;24468;52.128;9.278;2023-03-14T06:10:47;3.88;;;0.75;;
38717;SDS011;24468;52.128;9.278;2023-03-14T06:13:13;3.60;;;1.08;;
38717;SDS011;24468;52.128;9.278;2023-03-14T06:15:40;1.52;;;0.77;;
38717;SDS011;24468;52.128;9.278;2023-03-14T06:18:06;2.88;;;0.60;;
38717;SDS011;24468;52.128;9.278;2023-03-14T06:20:32;3.05;;;0.52;;
38717;SDS011;24468;52.128;9.278;2023-03-14T06:22:58;1.83;;;0.40;;
38717;SDS011;24468;52.128;9.278;2023-03-14T06:25:24;3.53;;;0.63;;
38717;SDS011;24468;52.128;9.278;2023-03-14T06:27:49;1.95;;;0.57;;
38717;SDS011;24468;52.128;9.278;2023-03-14T06:30:15;2.17;;;0.60;;
38717;SDS011;24468;52.128;9.278;2023-03-14T06:32:41;3.15;;;0.65;;
38717;SDS011;24468;52.128;9.278;2023-03-14T06:35:07;2.38;;;0.50;;
38717;SDS011;24468;52.128;9.278;2023-03-14T06:37:33;1.35;;;0.55;;
38717;SDS011;24468;52.128;9.278;2023-03-14T06:39:59;0.70;;;0.22;;
38717;SDS011;24468;52.128;9.278;2023-03-14T06:42:24;1.67;;;0.30;;
38717;SDS011;24468;52.128;9.278;2023-03-14T06:44:50;2.20;;;0.40;;
38717;SDS011;24468;52.128;9.278;2023-03-14T06:47:15;1.10;;;0.50;;
38717;SDS011;24468;52.128;9.278;2023-03-14T06:49:41;2.20;;;0.68;;
38717;SDS011;24468;52.128;9.278;2023-03-14T06:52:06;1.23;;;0.60;;
38717;SDS011;24468;52.128;9.278;2023-03-14T06:54:32;2.50;;;0.40;;
38717;SDS011;24468;52.128;9.278;2023-03-14T06:56:58;1.00;;;0.30;;
38717;SDS011;24468;52.128;9.278;2023-03-14T06:59:23;0.25;;;0.10;;
38717;SDS011;24468;52.128;9.278;2023-03-14T07:01:49;1.75;;;0.57;;
38717;SDS011;24468;52.128;9.278;2023-03-14T07:04:15;1.23;;;0.30;;
38717;SDS011;24468;52.128;9.278;2023-03-14T07:06:42;1.88;;;0.45;;
38717;SDS011;24468;52.128;9.278;2023-03-14T07:09:11;1.02;;;0.40;;
38717;SDS011;24468;52.128;9.278;2023-03-14T07:11:37;0.43;;;0.17;;
38717;SDS011;24468;52.128;9.278;2023-03-14T07:14:02;1.60;;;0.65;;
38717;SDS011;24468;52.128;9.278;2023-03-14T07:16:28;2.67;;;0.28;;
38717;SDS011;24468;52.128;9.278;2023-03-14T07:18:56;1.52;;;0.40;;
38717;SDS011;24468;52.128;9.278;2023-03-14T07:21:22;0.88;;;0.40;;
38717;SDS011;24468;52.128;9.278;2023-03-14T07:23:48;1.98;;;0.30;;
38717;SDS011;24468;52.128;9.278;2023-03-14T07:26:13;1.20;;;0.60;;
38717;SDS011;24468;52.128;9.278;2023-03-14T07:28:39;2.22;;;0.30;;
38717;SDS011;24468;52.128;9.278;2023-03-14T07:31:05;0.40;;;0.20;;
38717;SDS011;24468;52.128;9.278;2023-03-14T07:33:30;0.80;;;0.20;;
38717;SDS011;24468;52.128;9.278;2023-03-14T07:35:56;0.20;;;0.20;;
38717;SDS011;24468;52.128;9.278;2023-03-14T07:38:22;0.73;;;0.10;;
38717;SDS011;24468;52.128;9.278;2023-03-14T07:40:47;0.30;;;0.17;;
38717;SDS011;24468;52.128;9.278;2023-03-14T07:43:13;1.30;;;0.05;;
38717;SDS011;24468;52.128;9.278;2023-03-14T07:45:38;0.45;;;0.10;;
38717;SDS011;24468;52.128;9.278;2023-03-14T07:48:04;0.55;;;0.20;;
38717;SDS011;24468;52.128;9.278;2023-03-14T07:50:29;2.22;;;0.20;;
38717;SDS011;24468;52.128;9.278;2023-03-14T07:52:55;1.00;;;0.28;;
38717;SDS011;24468;52.128;9.278;2023-03-14T07:55:21;1.70;;;0.08;;
38717;SDS011;24468;52.128;9.278;2023-03-14T07:57:46;1.38;;;0.45;;
38717;SDS011;24468;52.128;9.278;2023-03-14T08:00:12;0.22;;;0.20;;
38717;SDS011;24468;52.128;9.278;2023-03-14T08:02:39;0.00;;;0.00;;
38717;SDS011;24468;52.128;9.278;2023-03-14T08:05:06;0.05;;;0.05;;
38717;SDS011;24468;52.128;9.278;2023-03-14T08:07:32;1.02;;;0.20;;
38717;SDS011;24468;52.128;9.278;2023-03-14T08:09:57;0.63;;;0.17;;
38717;SDS011;24468;52.128;9.278;2023-03-14T08:12:23;1.27;;;0.13;;
38717;SDS011;24468;52.128;9.278;2023-03-14T08:14:49;0.20;;;0.10;;
38717;SDS011;24468;52.128;9.278;2023-03-14T08:17:14;0.00;;;0.00;;
38717;SDS011;24468;52.128;9.278;2023-03-14T08:19:41;0.65;;;0.10;;
38717;SDS011;24468;52.128;9.278;2023-03-14T08:22:07;1.33;;;0.38;;
38717;SDS011;24468;52.128;9.278;2023-03-14T08:24:32;1.95;;;0.20;;
38717;SDS011;24468;52.128;9.278;2023-03-14T08:26:59;2.08;;;0.20;;
38717;SDS011;24468;52.128;9.278;2023-03-14T08:29:25;0.60;;;0.60;;
38717;SDS011;24468;52.128;9.278;2023-03-14T08:31:50;0.68;;;0.25;;
38717;SDS011;24468;52.128;9.278;2023-03-14T08:34:16;1.65;;;0.40;;
38717;SDS011;24468;52.128;9.278;2023-03-14T08:36:41;4.05;;;0.80;;
38717;SDS011;24468;52.128;9.278;2023-03-14T08:39:08;1.60;;;0.70;;
38717;SDS011;24468;52.128;9.278;2023-03-14T08:41:34;1.10;;;0.38;;
38717;SDS011;24468;52.128;9.278;2023-03-14T08:44:05;3.65;;;0.77;;
38717;SDS011;24468;52.128;9.278;2023-03-14T08:46:33;1.10;;;0.70;;
38717;SDS011;24468;52.128;9.278;2023-03-14T08:48:59;1.98;;;0.75;;
38717;SDS011;24468;52.128;9.278;2023-03-14T08:51:25;1.20;;;0.57;;
38717;SDS011;24468;52.128;9.278;2023-03-14T08:53:51;3.30;;;0.50;;
38717;SDS011;24468;52.128;9.278;2023-03-14T08:56:16;0.90;;;0.40;;
38717;SDS011;24468;52.128;9.278;2023-03-14T08:58:42;2.30;;;0.98;;
38717;SDS011;24468;52.128;9.278;2023-03-14T09:01:09;2.88;;;0.57;;
38717;SDS011;24468;52.128;9.278;2023-03-14T09:03:35;1.40;;;0.50;;
38717;SDS011;24468;52.128;9.278;2023-03-14T09:06:02;1.88;;;0.45;;
38717;SDS011;24468;52.128;9.278;2023-03-14T09:08:33;1.73;;;0.30;;
38717;SDS011;24468;52.128;9.278;2023-03-14T09:10:59;0.50;;;0.30;;
38717;SDS011;24468;52.128;9.278;2023-03-14T09:13:25;1.58;;;0.28;;
38717;SDS011;24468;52.128;9.278;2023-03-14T09:15:51;1.30;;;0.20;;
38717;SDS011;24468;52.128;9.278;2023-03-14T09:18:18;1.80;;;0.40;;
38717;SDS011;24468;52.128;9.278;2023-03-14T09:20:43;0.88;;;0.20;;
38717;SDS011;24468;52.128;9.278;2023-03-14T09:23:09;0.55;;;0.35;;
38717;SDS011;24468;52.128;9.278;2023-03-14T09:25:34;0.85;;;0.40;;
38717;SDS011;24468;52.128;9.278;2023-03-14T09:28:00;2.63;;;0.20;;
38717;SDS011;24468;52.128;9.278;2023-03-14T09:30:25;0.10;;;0.10;;
38717;SDS011;24468;52.128;9.278;2023-03-14T09:32:51;0.65;;;0.30;;
38717;SDS011;24468;52.128;9.278;2023-03-14T09:35:16;0.90;;;0.40;;
38717;SDS011;24468;52.128;9.278;2023-03-14T09:37:42;0.68;;;0.22;;
38717;SDS011;24468;52.128;9.278;2023-03-14T09:40:11;0.35;;;0.30;;
38717;SDS011;24468;52.128;9.278;2023-03-14T09:42:40;0.30;;;0.10;;
38717;SDS011;24468;52.128;9.278;2023-03-14T09:45:06;0.85;;;0.35;;
38717;SDS011;24468;52.128;9.278;2023-03-14T09:47:42;1.65;;;0.30;;
38717;SDS011;24468;52.128;9.278;2023-03-14T09:50:18;1.23;;;0.32;;
38717;SDS011;24468;52.128;9.278;2023-03-14T09:52:48;0.22;;;0.10;;
38717;SDS011;24468;52.128;9.278;2023-03-14T09:55:31;0.98;;;0.30;;
38717;SDS011;24468;52.128;9.278;2023-03-14T09:57:59;0.68;;;0.30;;
38717;SDS011;24468;52.128;9.278;2023-03-14T10:00:28;0.20;;;0.20;;
38717;SDS011;24468;52.128;9.278;2023-03-14T10:03:00;0.47;;;0.25;;
38717;SDS011;24468;52.128;9.278;2023-03-14T10:05:31;1.42;;;0.30;;
38717;SDS011;24468;52.128;9.278;2023-03-14T10:07:56;6.93;;;1.75;;
38717;SDS011;24468;52.128;9.278;2023-03-14T10:10:22;0.25;;;0.22;;
38717;SDS011;24468;52.128;9.278;2023-03-14T10:15:42;0.22;;;0.22;;
38717;SDS011;24468;52.128;9.278;2023-03-14T10:18:16;1.85;;;0.47;;
38717;SDS011;24468;52.128;9.278;2023-03-14T10:20:43;0.55;;;0.20;;
38717;SDS011;24468;52.128;9.278;2023-03-14T10:25:37;2.30;;;0.30;;
38717;SDS011;24468;52.128;9.278;2023-03-14T10:28:05;1.00;;;0.30;;
38717;SDS011;24468;52.128;9.278;2023-03-14T10:30:54;0.63;;;0.17;;
38717;SDS011;24468;52.128;9.278;2023-03-14T10:33:22;0.52;;;0.20;;
38717;SDS011;24468;52.128;9.278;2023-03-14T10:38:31;0.70;;;0.30;;
38717;SDS011;24468;52.128;9.278;2023-03-14T10:41:00;0.32;;;0.20;;
38717;SDS011;24468;52.128;9.278;2023-03-14T10:43:31;0.30;;;0.30;;
38717;SDS011;24468;52.128;9.278;2023-03-14T10:46:08;0.65;;;0.20;;
38717;SDS011;24468;52.128;9.278;2023-03-14T10:48:39;0.50;;;0.30;;
38717;SDS011;24468;52.128;9.278;2023-03-14T10:53:46;1.67;;;0.60;;
38717;SDS011;24468;52.128;9.278;2023-03-14T10:59:00;0.88;;;0.75;;
38717;SDS011;24468;52.128;9.278;2023-03-14T11:01:29;0.50;;;0.50;;
38717;SDS011;24468;52.128;9.278;2023-03-14T11:07:33;1.48;;;0.68;;
38717;SDS011;24468;52.128;9.278;2023-03-14T11:10:20;0.60;;;0.60;;
38717;SDS011;24468;52.128;9.278;2023-03-14T11:16:09;1.08;;;0.40;;
38717;SDS011;24468;52.128;9.278;2023-03-14T11:18:48;0.40;;;0.10;;
38717;SDS011;24468;52.128;9.278;2023-03-14T11:21:42;0.15;;;0.10;;
38717;SDS011;24468;52.128;9.278;2023-03-14T11:24:48;0.22;;;0.10;;
38717;SDS011;24468;52.128;9.278;2023-03-14T11:35:28;0.00;;;0.00;;
38717;SDS011;24468;52.128;9.278;2023-03-14T11:40:58;0.90;;;0.25;;
38717;SDS011;24468;52.128;9.278;2023-03-14T11:43:40;0.32;;;0.20;;
38717;SDS011;24468;52.128;9.278;2023-03-14T11:46:20;2.47;;;0.22;;
38717;SDS011;24468;52.128;9.278;2023-03-14T11:49:24;0.17;;;0.15;;
38717;SDS011;24468;52.128;9.278;2023-03-14T11:55:19;0.30;;;0.25;;
38717;SDS011;24468;52.128;9.278;2023-03-14T11:58:23;0.38;;;0.20;;
38717;SDS011;24468;52.128;9.278;2023-03-14T12:00:54;0.90;;;0.10;;
38717;SDS011;24468;52.128;9.278;2023-03-14T12:03:35;0.20;;;0.10;;
38717;SDS011;24468;52.128;9.278;2023-03-14T12:06:23;0.80;;;0.20;;
38717;SDS011;24468;52.128;9.278;2023-03-14T12:09:00;2.95;;;0.17;;
38717;SDS011;24468;52.128;9.278;2023-03-14T12:14:22;0.30;;;0.20;;
38717;SDS011;24468;52.128;9.278;2023-03-14T12:17:25;0.10;;;0.05;;
38717;SDS011;24468;52.128;9.278;2023-03-14T12:20:06;0.10;;;0.10;;
38717;SDS011;24468;52.128;9.278;2023-03-14T12:22:44;0.70;;;0.10;;
38717;SDS011;24468;52.128;9.278;2023-03-14T12:25:23;0.55;;;0.20;;
38717;SDS011;24468;52.128;9.278;2023-03-14T12:30:34;0.75;;;0.30;;
38717;SDS011;24468;52.128;9.278;2023-03-14T12:38:12;0.45;;;0.40;;
38717;SDS011;24468;52.128;9.278;2023-03-14T12:43:45;2.30;;;0.60;;
38717;SDS011;24468;52.128;9.278;2023-03-14T12:51:35;0.88;;;0.60;;
38717;SDS011;24468;52.128;9.278;2023-03-14T12:59:59;3.33;;;0.75;;
38717;SDS011;24468;52.128;9.278;2023-03-14T13:02:37;7.18;;;1.58;;
38717;SDS011;24468;52.128;9.278;2023-03-14T13:05:12;5.13;;;1.33;;
38717;SDS011;24468;52.128;9.278;2023-03-14T13:10:18;4.25;;;0.80;;
38717;SDS011;24468;52.128;9.278;2023-03-14T13:15:43;8.32;;;1.30;;
38717;SDS011;24468;52.128;9.278;2023-03-14T13:18:15;7.95;;;1.52;;
38717;SDS011;24468;52.128;9.278;2023-03-14T13:21:01;6.82;;;0.93;;
38717;SDS011;24468;52.128;9.278;2023-03-14T13:23:31;9.65;;;1.63;;
38717;SDS011;24468;52.128;9.278;2023-03-14T13:26:00;10.77;;;1.77;;
38717;SDS011;24468;52.128;9.278;2023-03-14T13:28:27;6.45;;;1.52;;
38717;SDS011;24468;52.128;9.278;2023-03-14T13:30:56;5.80;;;1.90;;
38717;SDS011;24468;52.128;9.278;2023-03-14T13:33:25;5.13;;;1.30;;
38717;SDS011;24468;52.128;9.278;2023-03-14T13:35:55;3.22;;;1.33;;
38717;SDS011;24468;52.128;9.278;2023-03-14T13:38:28;5.28;;;1.63;;
38717;SDS011;24468;52.128;9.278;2023-03-14T13:40:56;7.20;;;1.48;;
38717;SDS011;24468;52.128;9.278;2023-03-14T13:43:28;6.13;;;1.65;;
38717;SDS011;24468;52.128;9.278;2023-03-14T13:46:14;5.97;;;1.02;;
38717;SDS011;24468;52.128;9.278;2023-03-14T13:48:46;4.72;;;1.27;;
38717;SDS011;24468;52.128;9.278;2023-03-14T13:51:25;4.47;;;1.08;;
38717;SDS011;24468;52.128;9.278;2023-03-14T13:53:56;8.25;;;1.23;;
38717;SDS011;24468;52.128;9.278;2023-03-14T13:56:23;7.75;;;1.75;;
38717;SDS011;24468;52.128;9.278;2023-03-14T13:58:51;6.13;;;1.75;;
38717;SDS011;24468;52.128;9.278;2023-03-14T14:01:22;6.65;;;2.00;;
38717;SDS011;24468;52.128;9.278;2023-03-14T14:03:57;6.22;;;1.00;;
38717;SDS011;24468;52.128;9.278;2023-03-14T14:06:31;2.67;;;1.17;;
38717;SDS011;24468;52.128;9.278;2023-03-14T14:09:12;4.40;;;1.05;;
38717;SDS011;24468;52.128;9.278;2023-03-14T14:14:19;7.40;;;1.67;;
38717;SDS011;24468;52.128;9.278;2023-03-14T14:16:57;5.60;;;1.50;;
38717;SDS011;24468;52.128;9.278;2023-03-14T14:19:25;8.32;;;2.15;;
38717;SDS011;24468;52.128;9.278;2023-03-14T14:21:55;10.32;;;2.17;;
38717;SDS011;24468;52.128;9.278;2023-03-14T14:24:22;10.55;;;2.13;;
38717;SDS011;24468;52.128;9.278;2023-03-14T14:26:54;11.15;;;2.10;;
38717;SDS011;24468;52.128;9.278;2023-03-14T14:29:27;14.80;;;3.38;;
38717;SDS011;24468;52.128;9.278;2023-03-14T14:32:33;12.18;;;2.92;;
38717;SDS011;24468;52.128;9.278;2023-03-14T14:37:20;9.50;;;2.22;;
38717;SDS011;24468;52.128;9.278;2023-03-14T14:39:48;21.08;;;6.75;;
38717;SDS011;24468;52.128;9.278;2023-03-14T14:42:19;11.00;;;3.45;;
38717;SDS011;24468;52.128;9.278;2023-03-14T14:44:49;9.32;;;4.22;;
38717;SDS011;24468;52.128;9.278;2023-03-14T14:47:18;12.85;;;2.90;;
38717;SDS011;24468;52.128;9.278;2023-03-14T14:49:50;15.10;;;2.63;;
38717;SDS011;24468;52.128;9.278;2023-03-14T14:52:21;10.10;;;2.65;;
38717;SDS011;24468;52.128;9.278;2023-03-14T14:55:10;13.20;;;2.50;;
38717;SDS011;24468;52.128;9.278;2023-03-14T14:57:48;13.60;;;2.27;;
38717;SDS011;24468;52.128;9.278;2023-03-14T15:00:23;12.73;;;2.25;;
38717;SDS011;24468;52.128;9.278;2023-03-14T15:02:52;10.32;;;2.30;;
38717;SDS011;24468;52.128;9.278;2023-03-14T15:05:26;30.10;;;3.00;;
38717;SDS011;24468;52.128;9.278;2023-03-14T15:07:55;10.27;;;1.98;;
38717;SDS011;24468;52.128;9.278;2023-03-14T15:10:23;10.80;;;1.75;;
38717;SDS011;24468;52.128;9.278;2023-03-14T15:12:50;12.13;;;1.52;;
38717;SDS011;24468;52.128;9.278;2023-03-14T15:15:16;10.23;;;2.65;;
38717;SDS011;24468;52.128;9.278;2023-03-14T15:17:43;14.90;;;2.78;;
38717;SDS011;24468;52.128;9.278;2023-03-14T15:20:10;7.00;;;1.65;;
38717;SDS011;24468;52.128;9.278;2023-03-14T15:22:42;11.18;;;2.03;;
38717;SDS011;24468;52.128;9.278;2023-03-14T15:25:08;5.60;;;1.70;;
38717;SDS011;24468;52.128;9.278;2023-03-14T15:27:34;5.30;;;1.50;;
38717;SDS011;24468;52.128;9.278;2023-03-14T15:30:00;7.72;;;1.90;;
38717;SDS011;24468;52.128;9.278;2023-03-14T15:32:26;8.88;;;2.20;;
38717;SDS011;24468;52.128;9.278;2023-03-14T15:34:54;6.88;;;1.88;;
38717;SDS011;24468;52.128;9.278;2023-03-14T15:37:20;9.07;;;1.75;;
38717;SDS011;24468;52.128;9.278;2023-03-14T15:39:46;11.95;;;2.20;;
38717;SDS011;24468;52.128;9.278;2023-03-14T15:42:12;8.40;;;1.67;;
38717;SDS011;24468;52.128;9.278;2023-03-14T15:44:37;6.70;;;1.48;;
38717;SDS011;24468;52.128;9.278;2023-03-14T15:47:04;5.65;;;1.73;;
38717;SDS011;24468;52.128;9.278;2023-03-14T15:49:31;5.22;;;1.40;;
38717;SDS011;24468;52.128;9.278;2023-03-14T15:51:57;7.60;;;1.73;;
38717;SDS011;24468;52.128;9.278;2023-03-14T15:54:23;6.00;;;2.33;;
38717;SDS011;24468;52.128;9.278;2023-03-14T15:56:53;6.28;;;1.45;;
38717;SDS011;24468;52.128;9.278;2023-03-14T15:59:20;6.68;;;2.00;;
38717;SDS011;24468;52.128;9.278;2023-03-14T16:01:46;6.05;;;1.50;;
38717;SDS011;24468;52.128;9.278;2023-03-14T16:04:13;7.18;;;1.25;;
38717;SDS011;24468;52.128;9.278;2023-03-14T16:06:39;6.30;;;1.45;;
38717;SDS011;24468;52.128;9.278;2023-03-14T16:09:04;7.20;;;1.27;;
38717;SDS011;24468;52.128;9.278;2023-03-14T16:11:30;5.28;;;1.60;;
38717;SDS011;24468;52.128;9.278;2023-03-14T16:13:55;5.85;;;1.55;;
38717;SDS011;24468;52.128;9.278;2023-03-14T16:16:21;6.25;;;1.45;;
38717;SDS011;24468;52.128;9.278;2023-03-14T16:18:46;6.15;;;1.70;;
38717;SDS011;24468;52.128;9.278;2023-03-14T16:21:13;10.82;;;2.17;;
38717;SDS011;24468;52.128;9.278;2023-03-14T16:23:41;6.10;;;1.95;;